createdAt,value
2023-03-17T00:04:54.248Z,2.42
2023-03-17T00:09:56.491Z,2.78
2023-03-17T00:14:58.682Z,2.80
2023-03-17T00:20:00.619Z,2.25
2023-03-17T00:25:02.752Z,2.30
2023-03-17T00:30:05.699Z,2.72
2023-03-17T00:35:29.019Z,2.60
2023-03-17T00:40:31.827Z,2.47
2023-03-17T00:45:34.475Z,2.40
2023-03-17T00:50:36.574Z,2.22
2023-03-17T00:55:39.089Z,2.63
2023-03-17T01:00:41.129Z,2.15
2023-03-17T01:05:44.121Z,2.00
2023-03-17T01:10:50.090Z,2.95
2023-03-17T01:15:56.090Z,2.17
2023-03-17T01:20:59.180Z,2.30
2023-03-17T01:26:01.837Z,2.70
2023-03-17T01:31:04.055Z,2.17
2023-03-17T01:36:06.354Z,2.15
2023-03-17T01:41:08.246Z,2.50
2023-03-17T01:46:21.225Z,2.13
2023-03-17T01:51:27.997Z,1.98
2023-03-17T01:56:30.326Z,2.33
2023-03-17T02:01:39.105Z,2.25
2023-03-17T02:06:55.119Z,2.85
2023-03-17T02:12:01.804Z,2.30
2023-03-17T02:17:04.045Z,2.17
2023-03-17T02:22:06.414Z,1.98
2023-03-17T02:27:17.898Z,2.55
2023-03-17T02:32:20.814Z,2.08
2023-03-17T02:37:25.722Z,2.00
2023-03-17T02:42:28.608Z,2.38
2023-03-17T02:47:33.945Z,2.67
2023-03-17T02:52:36.558Z,3.00
2023-03-17T02:57:38.560Z,2.35
2023-03-17T03:02:41.709Z,2.22
2023-03-17T03:07:43.668Z,2.13
2023-03-17T03:12:46.520Z,2.55
2023-03-17T03:17:48.314Z,2.35
2023-03-17T03:22:50.828Z,2.10
2023-03-17T03:27:52.869Z,2.03
2023-03-17T03:32:57.962Z,2.00
2023-03-17T03:38:00.571Z,2.08
2023-03-17T03:43:16.123Z,1.88
2023-03-17T03:48:24.200Z,1.85
2023-03-17T03:53:26.808Z,2.53
2023-03-17T03:58:28.916Z,2.35
2023-03-17T04:03:31.028Z,2.75
2023-03-17T04:08:33.285Z,1.92
2023-03-17T04:13:35.388Z,2.15
2023-03-17T04:18:37.454Z,2.58
2023-03-17T04:23:39.644Z,2.78
2023-03-17T04:28:41.523Z,3.17
2023-03-17T04:33:44.627Z,3.22
2023-03-17T04:38:46.710Z,2.70
2023-03-17T04:43:48.600Z,2.05
2023-03-17T04:48:50.410Z,3.05
2023-03-17T04:53:52.679Z,2.78
2023-03-17T04:58:54.917Z,3.05
2023-03-17T05:03:57.205Z,2.50
2023-03-17T05:08:59.079Z,3.53
2023-03-17T05:14:01.204Z,3.30
2023-03-17T05:19:03.933Z,3.40
2023-03-17T05:24:06.615Z,3.03
2023-03-17T05:29:09.394Z,3.53
2023-03-17T05:34:11.563Z,3.72
2023-03-17T05:39:14.663Z,3.13
2023-03-17T05:44:16.694Z,3.40
2023-03-17T05:49:19.182Z,3.28
2023-03-17T05:54:22.327Z,3.40
2023-03-17T05:59:24.318Z,3.40
2023-03-17T06:04:33.074Z,3.22
2023-03-17T06:09:35.285Z,2.92
2023-03-17T06:14:37.044Z,2.88
2023-03-17T06:19:38.985Z,3.75
2023-03-17T06:24:40.841Z,2.70
2023-03-17T06:29:42.735Z,3.03
2023-03-17T06:34:44.856Z,3.35
2023-03-17T06:39:48.251Z,3.08
2023-03-17T06:44:52.588Z,2.70
2023-03-17T06:49:54.436Z,3.53
2023-03-17T06:54:56.261Z,3.72
2023-03-17T06:59:58.068Z,2.72
2023-03-17T07:05:00.863Z,2.90
2023-03-17T07:10:03.754Z,2.85
2023-03-17T07:15:06.071Z,3.08
2023-03-17T07:20:09.918Z,2.88
2023-03-17T07:25:11.981Z,2.78
2023-03-17T07:30:19.607Z,3.42
2023-03-17T07:35:22.554Z,2.95
2023-03-17T07:40:27.262Z,2.75
2023-03-17T07:45:30.443Z,2.97
2023-03-17T07:50:35.822Z,2.58
2023-03-17T07:55:39.373Z,2.85
2023-03-17T08:00:41.280Z,2.95
2023-03-17T08:05:44.602Z,2.20
2023-03-17T08:10:46.878Z,2.25
2023-03-17T08:15:49.055Z,2.45
2023-03-17T08:20:51.467Z,1.88
2023-03-17T08:26:01.919Z,3.17
2023-03-17T08:31:13.815Z,2.85
2023-03-17T08:36:17.064Z,2.75
2023-03-17T08:41:22.920Z,2.90
2023-03-17T08:46:28.273Z,2.42
2023-03-17T08:51:34.781Z,2.60
2023-03-17T08:56:37.732Z,2.22
2023-03-17T09:01:41.638Z,2.45
2023-03-17T09:07:01.758Z,2.75
2023-03-17T09:12:06.980Z,2.70
2023-03-17T09:17:09.851Z,2.33
2023-03-17T09:22:17.802Z,2.60
2023-03-17T09:27:19.942Z,2.30
2023-03-17T09:32:22.765Z,2.20
2023-03-17T09:37:24.822Z,1.88
2023-03-17T09:42:49.842Z,2.08
2023-03-17T09:48:21.721Z,2.33
2023-03-17T09:53:34.367Z,2.47
2023-03-17T09:58:38.443Z,2.13
2023-03-17T10:03:40.563Z,2.00
2023-03-17T10:08:51.575Z,2.20
2023-03-17T10:14:28.861Z,2.28
2023-03-17T10:19:30.775Z,1.92
2023-03-17T10:24:34.438Z,2.33
2023-03-17T10:29:36.377Z,1.95
2023-03-17T10:34:39.661Z,1.80
2023-03-17T10:39:49.193Z,1.77
2023-03-17T10:45:32.555Z,2.10
2023-03-17T10:50:37.934Z,2.42
2023-03-17T10:55:49.960Z,2.30
2023-03-17T11:00:58.320Z,2.05
2023-03-17T11:06:04.182Z,1.60
2023-03-17T11:11:10.415Z,1.65
2023-03-17T11:16:24.294Z,2.08
2023-03-17T11:21:32.413Z,2.05
2023-03-17T11:27:00.427Z,1.88
2023-03-17T11:32:02.478Z,2.00
2023-03-17T11:37:22.243Z,1.95
2023-03-17T11:42:30.076Z,2.42
2023-03-17T11:47:49.981Z,1.85
2023-03-17T11:53:36.992Z,2.20
2023-03-17T11:58:46.592Z,2.60
2023-03-17T12:03:57.812Z,2.10
2023-03-17T12:09:16.540Z,1.88
2023-03-17T12:14:28.745Z,2.30
2023-03-17T12:19:54.082Z,2.15
2023-03-17T12:25:21.180Z,2.50
2023-03-17T12:30:52.294Z,2.00
2023-03-17T12:35:54.396Z,2.08
2023-03-17T12:41:26.747Z,2.40
2023-03-17T12:46:34.676Z,2.00
2023-03-17T12:56:47.404Z,2.45
2023-03-17T13:02:15.571Z,2.00
2023-03-17T13:07:27.059Z,2.92
2023-03-17T13:12:44.782Z,2.88
2023-03-17T13:17:46.962Z,2.95
2023-03-17T13:23:13.940Z,3.35
2023-03-17T13:28:24.585Z,3.85
2023-03-17T13:33:33.200Z,3.78
2023-03-17T13:38:35.079Z,3.15
2023-03-17T13:43:58.417Z,2.97
2023-03-17T13:49:18.755Z,2.88
2023-03-17T13:54:26.755Z,3.10
2023-03-17T14:00:05.659Z,3.15
2023-03-17T14:05:17.553Z,4.05
2023-03-17T14:10:23.963Z,3.28
2023-03-17T14:15:48.119Z,3.22
2023-03-17T14:20:55.212Z,3.50
2023-03-17T14:25:59.505Z,3.30
2023-03-17T14:31:07.343Z,4.53
2023-03-17T14:41:22.707Z,3.85
2023-03-17T14:46:32.310Z,4.13
2023-03-17T14:51:36.754Z,4.72
2023-03-17T14:56:43.051Z,4.85
2023-03-17T15:01:49.630Z,3.92
2023-03-17T15:06:54.347Z,4.40
2023-03-17T15:12:18.241Z,4.32
2023-03-17T15:17:28.484Z,4.28
2023-03-17T15:22:32.926Z,3.92
2023-03-17T15:27:34.721Z,4.43
2023-03-17T15:32:36.671Z,4.57
2023-03-17T15:37:38.628Z,4.80
2023-03-17T15:42:40.543Z,4.13
2023-03-17T15:47:44.122Z,4.05
2023-03-17T15:52:46.092Z,4.45
2023-03-17T15:57:54.748Z,4.22
2023-03-17T16:03:02.837Z,4.30
2023-03-17T16:08:04.870Z,5.43
2023-03-17T16:13:06.846Z,7.13
2023-03-17T16:18:19.153Z,5.13
2023-03-17T16:23:27.646Z,5.30
2023-03-17T16:28:32.160Z,4.70
2023-03-17T16:33:39.718Z,4.65
2023-03-17T16:38:44.949Z,4.72
2023-03-17T16:43:54.111Z,5.10
2023-03-17T16:48:56.292Z,5.28
2023-03-17T16:53:58.446Z,5.65
2023-03-17T16:59:01.088Z,5.85
2023-03-17T17:04:03.240Z,5.00
2023-03-17T17:09:05.553Z,5.65
2023-03-17T17:14:07.344Z,5.47
2023-03-17T17:19:17.587Z,5.47
2023-03-17T17:24:19.674Z,5.28
2023-03-17T17:29:21.557Z,5.45
2023-03-17T17:34:23.776Z,5.25
2023-03-17T17:39:25.954Z,5.40
2023-03-17T17:44:27.810Z,5.00
2023-03-17T17:49:29.688Z,6.38
2023-03-17T17:54:33.877Z,4.90
2023-03-17T17:59:35.699Z,4.43
2023-03-17T18:04:37.701Z,5.60
2023-03-17T18:09:39.963Z,4.22
2023-03-17T18:14:42.054Z,4.07
2023-03-17T18:19:44.187Z,4.22
2023-03-17T18:24:48.697Z,4.53
2023-03-17T18:29:50.749Z,4.93
2023-03-17T18:34:52.880Z,4.57
2023-03-17T18:40:11.975Z,4.20
2023-03-17T18:45:16.096Z,5.30
2023-03-17T18:50:18.633Z,4.75
2023-03-17T18:55:21.018Z,4.75
2023-03-17T19:00:25.368Z,3.90
2023-03-17T19:05:27.952Z,4.22
2023-03-17T19:10:30.460Z,3.78
2023-03-17T19:15:32.719Z,4.32
2023-03-17T19:20:36.263Z,4.82
2023-03-17T19:25:38.087Z,4.68
2023-03-17T19:30:40.003Z,5.20
2023-03-17T19:35:44.377Z,5.25
2023-03-17T19:40:46.538Z,4.00
2023-03-17T19:45:48.670Z,4.10
2023-03-17T19:50:51.028Z,3.42
2023-03-17T19:55:52.864Z,4.93
2023-03-17T20:00:54.877Z,3.88
2023-03-17T20:05:56.770Z,4.43
2023-03-17T20:11:01.538Z,3.70
2023-03-17T20:16:04.695Z,3.80
2023-03-17T20:21:12.434Z,3.33
2023-03-17T20:26:14.339Z,3.33
2023-03-17T20:31:16.358Z,3.22
2023-03-17T20:36:18.319Z,3.55
2023-03-17T20:41:21.093Z,3.28
2023-03-17T20:46:24.785Z,3.28
2023-03-17T20:51:27.058Z,3.20
2023-03-17T20:56:30.046Z,2.97
2023-03-17T21:01:36.356Z,3.47
2023-03-17T21:06:38.833Z,3.15
2023-03-17T21:11:41.113Z,3.17
2023-03-17T21:16:44.938Z,3.72
2023-03-17T21:21:46.896Z,3.30
2023-03-17T21:26:48.925Z,2.50
2023-03-17T21:31:51.021Z,3.00
2023-03-17T21:36:53.810Z,3.33
2023-03-17T21:41:56.339Z,3.42
2023-03-17T21:46:58.447Z,3.67
2023-03-17T21:52:00.320Z,3.53
2023-03-17T21:57:02.124Z,4.05
2023-03-17T22:02:04.057Z,3.00
2023-03-17T22:07:06.060Z,3.60
2023-03-17T22:12:08.680Z,4.05
2023-03-17T22:17:10.789Z,3.33
2023-03-17T22:22:12.778Z,2.72
2023-03-17T22:27:15.857Z,2.88
2023-03-17T22:32:17.750Z,3.45
2023-03-17T22:37:22.253Z,4.20
2023-03-17T22:42:24.140Z,2.85
2023-03-17T22:47:26.906Z,3.33
2023-03-17T22:52:29.026Z,3.42
2023-03-17T22:57:31.180Z,3.45
2023-03-17T23:02:33.045Z,3.58
2023-03-17T23:07:49.481Z,3.45
2023-03-17T23:12:52.452Z,3.42
2023-03-17T23:17:54.379Z,3.30
2023-03-17T23:22:56.549Z,3.00
2023-03-17T23:27:58.382Z,3.10
2023-03-17T23:33:01.281Z,2.95
2023-03-17T23:38:04.284Z,2.85
2023-03-17T23:43:06.703Z,3.72
2023-03-17T23:48:10.167Z,3.20
2023-03-17T23:53:12.288Z,3.55
2023-03-17T23:58:17.835Z,3.47
